createdAt,value
2023-10-26T00:11:52.912Z,89.71
2023-10-26T00:26:55.926Z,90.09
2023-10-26T00:57:19.987Z,90.49
2023-10-26T01:27:40.690Z,91.01
2023-10-26T01:42:43.427Z,91.40
2023-10-26T01:57:45.912Z,91.82
2023-10-26T02:12:51.229Z,92.15
2023-10-26T02:27:54.294Z,92.25
2023-10-26T02:42:57.172Z,92.49
2023-10-26T02:58:00.175Z,92.48
2023-10-26T03:13:17.364Z,93.04
2023-10-26T03:28:20.236Z,93.57
2023-10-26T03:43:37.422Z,93.64
2023-10-26T03:58:40.031Z,93.63
2023-10-26T04:13:42.589Z,93.81
2023-10-26T04:28:51.952Z,93.79
2023-10-26T04:43:55.284Z,93.77
2023-10-26T04:59:13.186Z,93.64
2023-10-26T05:14:16.065Z,93.92
2023-10-26T05:29:18.858Z,93.80
2023-10-26T05:44:21.761Z,94.04
2023-10-26T05:59:24.565Z,94.03
2023-10-26T06:14:27.475Z,94.25
2023-10-26T06:29:30.271Z,94.51
2023-10-26T06:44:33.081Z,94.51
2023-10-26T06:59:36.377Z,94.39
2023-10-26T07:14:41.417Z,94.06
2023-10-26T07:29:45.091Z,94.20
2023-10-26T07:45:02.678Z,94.25
2023-10-26T08:00:19.800Z,94.00
2023-10-26T08:26:59.550Z,94.06
2023-10-26T08:57:20.065Z,94.06
2023-10-26T09:12:37.107Z,94.31
2023-10-26T09:27:41.879Z,94.34
2023-10-26T09:42:44.712Z,94.67
2023-10-26T09:58:09.531Z,94.51
2023-10-26T10:13:39.133Z,94.40
2023-10-26T10:28:56.480Z,94.19
2023-10-26T10:43:59.648Z,94.24
2023-10-26T10:59:20.808Z,94.27
2023-10-26T11:14:23.788Z,94.21
2023-10-26T11:29:26.520Z,94.20
2023-10-26T11:44:30.641Z,93.96
2023-10-26T11:59:47.920Z,93.89
2023-10-26T12:14:51.013Z,94.00
2023-10-26T12:29:53.904Z,94.07
2023-10-26T12:44:56.717Z,94.40
2023-10-26T13:15:17.139Z,93.84
2023-10-26T13:30:24.116Z,93.53
2023-10-26T13:45:27.033Z,93.63
2023-10-26T14:00:30.012Z,93.42
2023-10-26T14:15:47.511Z,93.32
2023-10-26T14:30:50.074Z,93.51
2023-10-26T14:45:53.225Z,93.53
2023-10-26T15:00:57.114Z,93.63
2023-10-26T15:16:01.056Z,93.57
2023-10-26T15:31:04.522Z,93.40
2023-10-26T15:46:07.397Z,93.59
2023-10-26T16:16:29.596Z,93.98
2023-10-26T16:31:32.499Z,94.02
2023-10-26T16:46:35.287Z,94.03
2023-10-26T17:01:38.136Z,93.79
2023-10-26T17:32:12.825Z,93.80
2023-10-26T18:02:35.101Z,93.63
2023-10-26T18:17:37.663Z,94.08
2023-10-26T19:03:29.622Z,94.13
2023-10-26T19:18:32.794Z,94.20
2023-10-26T19:33:36.073Z,94.28
2023-10-26T19:48:39.477Z,94.11
2023-10-26T20:03:42.709Z,94.28
2023-10-26T20:18:48.815Z,94.28
2023-10-26T20:33:52.892Z,94.36
2023-10-26T20:48:56.344Z,94.27
2023-10-26T21:03:59.807Z,94.61
2023-10-26T21:19:02.939Z,94.23
2023-10-26T21:34:06.182Z,93.88
2023-10-26T21:49:09.618Z,93.36
2023-10-26T22:04:22.025Z,93.32
2023-10-26T22:19:26.768Z,93.04
2023-10-26T22:49:48.522Z,92.87
2023-10-26T23:04:55.432Z,92.81
2023-10-26T23:20:13.035Z,93.01
2023-10-26T23:35:31.763Z,93.01
2023-10-26T23:50:34.661Z,92.83
